Aérodrome :
LOGIN :

S'inscrire | Disclaimer

   EN    FR    IT 

 










Légende :    VFR   VFR Marginal   IFR   IFR Intensif   IFR Très Intensif
Visi : 
Plafond : 
>= 8 km
>= 3000ft
5 à 8 km
1000 à 3000 ft
1500m à 5 km
500 à 1000 ft
800 à 1500m
200 à 500 ft
< 800m
< 200 ft
Symboles :   Orages  Brouillard  Fortes neiges  Fortes précipitations  Vent > 20 kt
SIGMETs :   Divers  Orages  Givrage  Turbulence  Onde Orograph.  Cendres Volcan.






- Altitude de l'aérodrome : 55 ft
- Code IATA : DSA


EGCN - Robin Hood Doncaster Sheffield

DERNIER METAR :
  • 230450Z 17006KT 9999 SCT029 14/13 Q1000

METARs EXPIRÉS :
  • 230420Z 17007KT 9999 FEW028 BKN048 14/13 Q1000
  • 230350Z 18008KT 9999 FEW025 BKN047 15/13 Q1000
  • 230320Z AUTO 20012KT 9999 BKN049/// 15/13 Q1001
  • 230250Z AUTO 19006KT 9999 NCD 15/13 Q1001
  • 230220Z AUTO 20006KT 9999 NCD 15/13 Q1001

TAF TAF EGCN
Valide du 23 à 00h jusqu'au 24 à 00h UTC


222253Z 2300/2324 20010KT 9999 SCT030
PROB30
TEMPO 2300/2303 6000 SHRA BKN012
TEMPO 2303/2312 6000 RA BKN012
PROB40
TEMPO 2304/2309 3000 RADZ BKN006
BECMG 2306/2309 33005KT
PROB30
TEMPO 2312/2324 6000 SHRA



MET'MAP, la Météo Aéronautique d'un coup d'oeil ! - Copyright ORBIFLY Décembre 2007 - Disclaimer

ORBIFLY MET'MAP TEAM :

Programmation & Développement : Alexandra Zaïnal
Sur une idée originale de : Baudouin d'Aumeries
Assistance à la programmation : Marc-Olivier Méhu
Soutien technique & logistique : Manuel Goepfert

Contact : metmap@orbifly.com




SOURCES & CREDITS :

   NOAA